createdAt,value
2022-10-24T00:01:17.941Z,27.73
2022-10-24T00:03:44.850Z,29.60
2022-10-24T00:06:12.990Z,28.98
2022-10-24T00:08:41.450Z,27.75
2022-10-24T00:11:16.107Z,36.10
2022-10-24T00:13:43.809Z,43.78
2022-10-24T00:16:11.767Z,29.42
2022-10-24T00:18:38.607Z,34.67
2022-10-24T00:21:05.349Z,26.65
2022-10-24T00:23:32.075Z,26.95
2022-10-24T00:26:04.274Z,31.65
2022-10-24T00:28:35.777Z,33.20
2022-10-24T00:31:02.341Z,33.08
2022-10-24T00:33:29.175Z,31.02
2022-10-24T00:35:55.799Z,36.72
2022-10-24T00:38:22.365Z,30.30
2022-10-24T00:40:48.931Z,33.95
2022-10-24T00:43:24.315Z,33.33
2022-10-24T00:45:55.090Z,34.25
2022-10-24T00:48:34.085Z,30.17
2022-10-24T00:51:18.786Z,28.48
2022-10-24T00:53:50.549Z,27.23
2022-10-24T00:56:19.512Z,27.92
2022-10-24T00:58:46.886Z,24.20
2022-10-24T01:01:13.618Z,39.53
2022-10-24T01:03:40.610Z,34.95
2022-10-24T01:06:25.414Z,37.42
2022-10-24T01:09:08.873Z,38.42
2022-10-24T01:11:57.295Z,43.80
2022-10-24T01:14:23.727Z,30.92
2022-10-24T01:17:00.401Z,35.95
2022-10-24T01:19:45.504Z,31.42
2022-10-24T01:22:22.830Z,45.80
2022-10-24T01:25:10.567Z,29.55
2022-10-24T01:28:13.903Z,36.30
2022-10-24T01:30:50.053Z,32.42
2022-10-24T01:33:26.628Z,41.58
2022-10-24T01:35:58.996Z,33.97
2022-10-24T01:38:41.427Z,40.38
2022-10-24T01:41:14.458Z,36.88
2022-10-24T01:43:49.128Z,32.28
2022-10-24T01:46:22.741Z,29.58
2022-10-24T01:49:00.401Z,40.35
2022-10-24T01:51:30.418Z,43.08
2022-10-24T01:53:57.674Z,39.05
2022-10-24T01:56:26.049Z,35.13
2022-10-24T01:58:52.608Z,34.65
2022-10-24T02:01:25.501Z,37.22
2022-10-24T02:03:56.194Z,41.03
2022-10-24T02:06:30.215Z,38.67
2022-10-24T02:09:01.662Z,33.25
2022-10-24T02:11:28.322Z,38.35
2022-10-24T02:14:03.133Z,34.80
2022-10-24T02:16:30.541Z,44.60
2022-10-24T02:18:58.674Z,36.92
2022-10-24T02:21:27.916Z,33.05
2022-10-24T02:24:11.750Z,26.85
2022-10-24T02:26:47.380Z,32.28
2022-10-24T02:29:41.816Z,32.28
2022-10-24T02:32:12.839Z,28.00
2022-10-24T02:34:41.038Z,34.63
2022-10-24T02:37:10.105Z,27.90
2022-10-24T02:39:39.737Z,38.72
2022-10-24T02:42:08.418Z,35.42
2022-10-24T02:44:36.386Z,43.85
2022-10-24T02:47:05.814Z,40.97
2022-10-24T02:49:32.619Z,25.42
2022-10-24T02:52:00.128Z,36.20
2022-10-24T02:54:26.720Z,31.88
2022-10-24T02:56:57.990Z,35.92
2022-10-24T02:59:24.519Z,36.72
2022-10-24T03:01:51.060Z,30.95
2022-10-24T03:04:17.653Z,34.42
2022-10-24T03:06:44.235Z,36.92
2022-10-24T03:09:10.774Z,31.50
2022-10-24T03:11:37.387Z,29.48
2022-10-24T03:14:04.394Z,33.75
2022-10-24T03:16:30.887Z,33.10
2022-10-24T03:18:57.855Z,39.25
2022-10-24T03:21:24.405Z,29.95
2022-10-24T03:23:50.923Z,37.75
2022-10-24T03:26:17.419Z,29.33
2022-10-24T03:28:43.933Z,33.35
2022-10-24T03:31:10.506Z,38.92
2022-10-24T03:33:37.149Z,29.33
2022-10-24T03:36:04.044Z,48.38
2022-10-24T03:38:30.589Z,29.90
2022-10-24T03:40:57.910Z,29.15
2022-10-24T03:43:24.431Z,28.25
2022-10-24T03:45:50.936Z,32.72
2022-10-24T03:48:17.485Z,36.33
2022-10-24T03:50:44.099Z,38.05
2022-10-24T03:53:10.637Z,40.15
2022-10-24T03:55:38.211Z,25.65
2022-10-24T03:58:04.719Z,33.80
2022-10-24T04:00:34.288Z,32.28
2022-10-24T04:03:00.779Z,31.52
2022-10-24T04:05:27.408Z,26.60
2022-10-24T04:07:54.119Z,32.50
2022-10-24T04:10:20.639Z,39.28
2022-10-24T04:12:47.132Z,38.97
2022-10-24T04:15:13.704Z,38.00
2022-10-24T04:17:40.549Z,30.33
2022-10-24T04:20:07.754Z,40.03
2022-10-24T04:22:34.444Z,35.95
2022-10-24T04:25:01.009Z,32.22
2022-10-24T04:27:27.719Z,36.55
2022-10-24T04:29:54.295Z,31.02
2022-10-24T04:32:20.874Z,38.40
2022-10-24T04:34:47.597Z,38.42
2022-10-24T04:37:14.115Z,36.80
2022-10-24T04:39:40.704Z,35.75
2022-10-24T04:42:07.203Z,26.67
2022-10-24T04:44:33.738Z,42.13
2022-10-24T04:47:00.210Z,34.15
2022-10-24T04:49:26.688Z,36.88
2022-10-24T04:51:53.206Z,31.92
2022-10-24T04:54:19.691Z,31.73
2022-10-24T04:56:46.225Z,34.00
2022-10-24T04:59:12.735Z,33.08
2022-10-24T05:01:39.297Z,47.47
2022-10-24T05:04:05.935Z,29.02
2022-10-24T05:06:32.490Z,33.92
2022-10-24T05:08:58.999Z,41.50
2022-10-24T05:11:25.488Z,35.25
2022-10-24T05:13:52.085Z,30.38
2022-10-24T05:16:18.572Z,39.85
2022-10-24T05:18:45.044Z,26.50
2022-10-24T05:21:11.970Z,35.60
2022-10-24T05:23:38.537Z,39.78
2022-10-24T05:26:05.087Z,34.50
2022-10-24T05:28:31.772Z,36.63
2022-10-24T05:30:58.538Z,24.77
2022-10-24T05:33:25.126Z,32.42
2022-10-24T05:35:52.412Z,37.38
2022-10-24T05:38:19.479Z,34.30
2022-10-24T05:40:51.382Z,25.73
2022-10-24T05:43:18.837Z,29.42
2022-10-24T05:45:47.606Z,32.10
2022-10-24T05:48:14.183Z,35.03
2022-10-24T05:50:40.740Z,36.38
2022-10-24T05:53:08.719Z,38.63
2022-10-24T05:55:36.156Z,39.28
2022-10-24T05:58:02.953Z,38.22
2022-10-24T06:00:29.526Z,32.03
2022-10-24T06:02:56.021Z,32.47
2022-10-24T06:05:22.541Z,37.25
2022-10-24T06:07:49.243Z,33.25
2022-10-24T06:10:16.072Z,34.65
2022-10-24T06:12:43.185Z,37.47
2022-10-24T06:15:12.826Z,31.35
2022-10-24T06:17:39.316Z,32.25
2022-10-24T06:20:06.258Z,31.30
2022-10-24T06:22:32.824Z,39.30
2022-10-24T06:25:00.194Z,30.05
2022-10-24T06:27:26.767Z,29.65
2022-10-24T06:29:53.308Z,30.02
2022-10-24T06:32:19.858Z,43.13
2022-10-24T06:34:46.499Z,56.20
2022-10-24T06:37:13.116Z,48.05
2022-10-24T06:39:39.595Z,62.88
2022-10-24T06:42:06.130Z,43.65
2022-10-24T06:44:32.764Z,32.38
2022-10-24T06:46:59.270Z,28.92
2022-10-24T06:49:25.775Z,44.15
2022-10-24T06:51:52.307Z,33.70
2022-10-24T06:54:18.804Z,36.33
2022-10-24T06:56:45.882Z,29.02
2022-10-24T06:59:16.659Z,32.30
2022-10-24T07:01:43.956Z,40.53
2022-10-24T07:04:10.805Z,39.38
2022-10-24T07:06:37.376Z,33.70
2022-10-24T07:09:05.775Z,38.88
2022-10-24T07:11:34.035Z,28.02
2022-10-24T07:14:00.969Z,40.25
2022-10-24T07:16:30.040Z,33.47
2022-10-24T07:18:56.676Z,43.28
2022-10-24T07:21:28.596Z,28.13
2022-10-24T07:23:56.200Z,32.53
2022-10-24T07:26:24.563Z,27.23
2022-10-24T07:28:54.819Z,37.10
2022-10-24T07:31:23.822Z,26.70
2022-10-24T07:33:51.338Z,32.00
2022-10-24T07:36:20.337Z,41.05
2022-10-24T07:38:48.079Z,35.03
2022-10-24T07:41:15.121Z,37.10
2022-10-24T07:43:41.698Z,38.60
2022-10-24T07:46:10.376Z,40.10
2022-10-24T07:48:37.992Z,38.58
2022-10-24T07:51:09.395Z,30.85
2022-10-24T07:53:36.174Z,42.10
2022-10-24T07:56:05.595Z,33.28
2022-10-24T07:58:32.150Z,31.55
2022-10-24T08:01:04.226Z,41.50
2022-10-24T08:03:31.116Z,40.88
2022-10-24T08:05:57.889Z,25.88
2022-10-24T08:08:35.752Z,37.78
2022-10-24T08:11:09.331Z,38.85
2022-10-24T08:13:36.031Z,31.40
2022-10-24T08:16:05.363Z,33.17
2022-10-24T08:18:34.654Z,32.50
2022-10-24T08:21:07.924Z,37.28
2022-10-24T08:23:36.254Z,31.77
2022-10-24T08:26:07.293Z,34.50
2022-10-24T08:28:34.190Z,30.05
2022-10-24T08:31:04.246Z,33.05
2022-10-24T08:33:31.747Z,31.35
2022-10-24T08:36:00.578Z,43.22
2022-10-24T08:38:28.713Z,36.15
2022-10-24T08:40:56.371Z,48.97
2022-10-24T08:43:23.942Z,38.53
2022-10-24T08:46:02.598Z,36.53
2022-10-24T08:48:35.187Z,31.50
2022-10-24T08:51:34.237Z,47.15
2022-10-24T08:54:02.086Z,33.17
2022-10-24T08:56:32.164Z,37.03
2022-10-24T08:59:00.470Z,30.25
2022-10-24T09:01:40.179Z,35.28
2022-10-24T09:04:10.950Z,34.67
2022-10-24T09:06:38.155Z,29.60
2022-10-24T09:09:12.049Z,30.13
2022-10-24T09:11:56.727Z,41.88
2022-10-24T09:14:36.357Z,35.88
2022-10-24T09:17:21.100Z,24.63
2022-10-24T09:20:01.115Z,34.85
2022-10-24T09:22:32.090Z,37.70
2022-10-24T09:25:08.025Z,32.65
2022-10-24T09:27:37.428Z,28.65
2022-10-24T09:30:06.435Z,31.65
2022-10-24T09:32:35.461Z,31.95
2022-10-24T09:35:07.771Z,29.90
2022-10-24T09:37:39.250Z,43.80
2022-10-24T09:40:22.799Z,36.17
2022-10-24T09:43:05.083Z,30.30
2022-10-24T09:45:46.290Z,37.78
2022-10-24T09:48:26.097Z,40.25
2022-10-24T09:50:56.839Z,33.80
2022-10-24T09:53:32.737Z,31.00
2022-10-24T09:56:07.216Z,27.05
2022-10-24T09:58:34.000Z,25.05
2022-10-24T10:01:07.618Z,28.55
2022-10-24T10:03:35.335Z,26.00
2022-10-24T10:06:18.792Z,43.38
2022-10-24T10:08:55.625Z,21.75
2022-10-24T10:11:30.933Z,31.42
2022-10-24T10:14:00.370Z,36.47
2022-10-24T10:16:29.335Z,22.65
2022-10-24T10:19:20.699Z,32.40
2022-10-24T10:22:01.890Z,29.52
2022-10-24T10:24:41.513Z,30.38
2022-10-24T10:27:30.375Z,27.75
2022-10-24T10:30:12.089Z,31.17
2022-10-24T10:32:53.070Z,30.85
2022-10-24T10:35:25.953Z,28.27
2022-10-24T10:38:27.835Z,25.67
2022-10-24T10:41:03.387Z,15.57
2022-10-24T10:43:54.669Z,16.42
2022-10-24T10:46:29.737Z,11.68
2022-10-24T10:48:59.106Z,12.88
2022-10-24T10:51:42.198Z,8.07
2022-10-24T10:54:24.103Z,9.95
2022-10-24T10:57:02.490Z,15.98
2022-10-24T10:59:59.900Z,8.38
2022-10-24T11:02:48.120Z,18.02
2022-10-24T11:05:35.719Z,7.50
2022-10-24T11:08:27.497Z,14.52
2022-10-24T11:11:01.134Z,6.13
2022-10-24T11:13:34.447Z,7.55
2022-10-24T11:16:05.771Z,8.52
2022-10-24T11:18:40.036Z,13.90
2022-10-24T11:21:11.648Z,7.13
2022-10-24T11:23:44.985Z,5.90
2022-10-24T11:26:44.882Z,8.70
2022-10-24T11:29:54.345Z,6.72
2022-10-24T11:32:24.756Z,8.05
2022-10-24T11:35:03.622Z,10.32
2022-10-24T11:37:35.992Z,10.55
2022-10-24T11:40:05.750Z,5.57
2022-10-24T11:43:02.258Z,6.43
2022-10-24T11:45:37.610Z,10.88
2022-10-24T11:48:19.342Z,3.53
2022-10-24T11:50:52.203Z,7.60
2022-10-24T11:53:31.730Z,4.40
2022-10-24T11:56:27.338Z,6.50
2022-10-24T11:59:04.823Z,11.07
2022-10-24T12:02:11.039Z,10.15
2022-10-24T12:04:59.405Z,8.52
2022-10-24T12:07:28.847Z,5.15
2022-10-24T12:10:10.516Z,7.53
2022-10-24T12:13:07.849Z,5.05
2022-10-24T12:15:37.651Z,3.20
2022-10-24T12:18:13.330Z,7.45
2022-10-24T12:20:41.219Z,10.88
2022-10-24T12:23:18.225Z,8.45
2022-10-24T12:25:47.355Z,10.93
2022-10-24T12:28:25.484Z,6.45
2022-10-24T12:31:14.765Z,9.35
2022-10-24T12:33:43.444Z,6.55
2022-10-24T12:36:10.747Z,2.38
2022-10-24T12:38:37.315Z,3.40
2022-10-24T12:41:06.929Z,6.72
2022-10-24T12:43:44.360Z,5.22
2022-10-24T12:46:22.589Z,5.90
2022-10-24T12:48:59.008Z,4.78
2022-10-24T12:51:37.790Z,6.93
2022-10-24T12:54:13.579Z,8.63
2022-10-24T12:56:49.591Z,8.45
2022-10-24T12:59:27.464Z,8.27
2022-10-24T13:02:45.921Z,4.65
2022-10-24T13:05:12.483Z,7.07
2022-10-24T13:08:07.998Z,8.70
2022-10-24T13:10:48.275Z,7.78
2022-10-24T13:14:18.496Z,5.95
2022-10-24T13:17:06.789Z,4.43
2022-10-24T13:19:33.599Z,14.55
2022-10-24T13:22:01.914Z,6.20
2022-10-24T13:24:40.525Z,5.53
2022-10-24T13:27:11.900Z,5.93
2022-10-24T13:29:39.759Z,3.92
2022-10-24T13:32:06.236Z,7.25
2022-10-24T13:34:52.417Z,6.85
2022-10-24T13:37:34.700Z,5.63
2022-10-24T13:40:10.207Z,4.03
2022-10-24T13:42:43.110Z,5.93
2022-10-24T13:45:22.984Z,5.93
2022-10-24T13:47:54.455Z,6.22
2022-10-24T13:50:28.886Z,6.05
2022-10-24T13:53:29.765Z,4.47
2022-10-24T13:56:02.066Z,5.88
2022-10-24T13:58:40.965Z,8.13
2022-10-24T14:01:25.659Z,6.78
2022-10-24T14:03:53.666Z,4.65
2022-10-24T14:06:30.079Z,5.88
2022-10-24T14:09:06.809Z,4.55
2022-10-24T14:11:39.574Z,2.65
2022-10-24T14:14:14.152Z,5.38
2022-10-24T14:16:40.731Z,4.38
2022-10-24T14:19:28.328Z,9.10
2022-10-24T14:21:57.836Z,7.93
2022-10-24T14:24:24.834Z,6.20
2022-10-24T14:26:54.164Z,4.88
2022-10-24T14:29:32.811Z,5.93
2022-10-24T14:32:02.915Z,5.50
2022-10-24T14:34:35.344Z,4.15
2022-10-24T14:37:08.876Z,4.75
2022-10-24T14:39:38.447Z,4.30
2022-10-24T14:42:05.330Z,8.43
2022-10-24T14:44:33.103Z,5.15
2022-10-24T14:47:18.378Z,3.25
2022-10-24T14:49:44.959Z,7.28
2022-10-24T14:52:14.406Z,5.40
2022-10-24T14:54:44.095Z,6.70
2022-10-24T14:57:22.869Z,6.45
2022-10-24T14:59:52.886Z,5.30
2022-10-24T15:02:33.010Z,5.60
2022-10-24T15:05:24.535Z,6.25
2022-10-24T15:10:47.927Z,6.47
2022-10-24T15:13:21.877Z,10.43
2022-10-24T15:16:01.141Z,4.10
2022-10-24T15:18:31.028Z,5.75
2022-10-24T15:21:07.250Z,2.17
2022-10-24T15:23:38.184Z,1.98
2022-10-24T15:26:19.510Z,5.65
2022-10-24T15:28:47.930Z,6.50
2022-10-24T15:31:17.672Z,4.90
2022-10-24T15:33:44.585Z,3.85
2022-10-24T15:36:30.738Z,7.22
2022-10-24T15:39:03.971Z,4.57
2022-10-24T15:41:30.918Z,4.35
2022-10-24T15:43:57.990Z,3.00
2022-10-24T15:46:26.296Z,4.43
2022-10-24T15:48:53.028Z,3.20
2022-10-24T15:51:22.611Z,4.57
2022-10-24T15:53:50.390Z,5.15
2022-10-24T15:56:17.147Z,2.55
2022-10-24T15:58:44.602Z,12.30
2022-10-24T16:01:23.229Z,6.03
2022-10-24T16:03:49.861Z,5.93
2022-10-24T16:06:16.366Z,3.80
2022-10-24T16:08:43.130Z,5.78
2022-10-24T16:11:12.182Z,8.05
2022-10-24T16:13:38.733Z,7.22
2022-10-24T16:16:05.786Z,4.40
2022-10-24T16:18:32.305Z,8.95
2022-10-24T16:20:59.858Z,5.35
2022-10-24T16:23:26.784Z,7.65
2022-10-24T16:25:53.366Z,8.57
2022-10-24T16:28:23.519Z,6.05
2022-10-24T16:30:50.584Z,4.15
2022-10-24T16:33:20.084Z,5.43
2022-10-24T16:35:49.754Z,9.68
2022-10-24T16:38:16.909Z,4.00
2022-10-24T16:40:46.757Z,4.75
2022-10-24T16:43:17.099Z,7.72
2022-10-24T16:45:44.099Z,4.72
2022-10-24T16:48:10.877Z,8.40
2022-10-24T16:50:41.628Z,7.18
2022-10-24T16:53:08.900Z,2.15
2022-10-24T16:55:35.607Z,2.92
2022-10-24T16:58:02.217Z,9.48
2022-10-24T17:00:29.141Z,10.88
2022-10-24T17:02:58.023Z,4.47
2022-10-24T17:05:27.658Z,9.77
2022-10-24T17:07:54.804Z,7.80
2022-10-24T17:10:24.603Z,6.03
2022-10-24T17:12:52.384Z,8.07
2022-10-24T17:15:22.045Z,2.38
2022-10-24T17:17:49.776Z,7.30
2022-10-24T17:20:17.773Z,4.95
2022-10-24T17:22:45.458Z,13.10
2022-10-24T17:25:26.866Z,5.15
2022-10-24T17:27:55.140Z,6.57
2022-10-24T17:30:28.291Z,11.60
2022-10-24T17:32:55.010Z,7.40
2022-10-24T17:35:23.631Z,9.40
2022-10-24T17:37:52.986Z,7.35
2022-10-24T17:40:28.693Z,10.70
2022-10-24T17:42:55.813Z,5.78
2022-10-24T17:45:24.891Z,5.93
2022-10-24T17:47:51.757Z,11.75
2022-10-24T17:50:19.104Z,5.25
2022-10-24T17:52:51.271Z,7.63
2022-10-24T17:55:44.462Z,10.05
2022-10-24T17:58:09.216Z,6.28
2022-10-24T18:00:36.431Z,12.57
2022-10-24T18:03:03.345Z,4.25
2022-10-24T18:05:30.396Z,9.05
2022-10-24T18:07:57.944Z,6.90
2022-10-24T18:10:24.942Z,4.80
2022-10-24T18:12:52.249Z,4.80
2022-10-24T18:15:20.151Z,7.30
2022-10-24T18:17:48.263Z,5.20
2022-10-24T18:20:15.981Z,3.08
2022-10-24T18:22:44.037Z,10.05
2022-10-24T18:25:12.571Z,4.32
2022-10-24T18:27:41.101Z,6.28
2022-10-24T18:30:08.258Z,6.30
2022-10-24T18:32:35.169Z,5.47
2022-10-24T18:35:01.689Z,9.38
2022-10-24T18:37:28.239Z,5.05
2022-10-24T18:39:55.162Z,7.20
2022-10-24T18:42:55.243Z,10.02
2022-10-24T18:45:25.551Z,5.35
2022-10-24T18:47:53.175Z,7.68
2022-10-24T18:50:22.494Z,10.10
2022-10-24T18:52:48.992Z,7.18
2022-10-24T18:55:24.668Z,3.10
2022-10-24T18:57:52.357Z,3.70
2022-10-24T19:00:24.738Z,9.57
2022-10-24T19:03:12.402Z,4.32
2022-10-24T19:05:47.894Z,3.80
2022-10-24T19:08:19.784Z,4.07
2022-10-24T19:10:46.764Z,7.13
2022-10-24T19:13:14.012Z,5.80
2022-10-24T19:15:45.588Z,8.93
2022-10-24T19:18:15.401Z,6.25
2022-10-24T19:20:42.433Z,5.30
2022-10-24T19:23:13.996Z,12.18
2022-10-24T19:25:40.818Z,6.93
2022-10-24T19:28:07.916Z,4.90
2022-10-24T19:30:34.423Z,7.55
2022-10-24T19:33:00.923Z,4.28
2022-10-24T19:35:27.435Z,8.15
2022-10-24T19:37:54.808Z,10.23
2022-10-24T19:40:21.287Z,10.38
2022-10-24T19:42:47.920Z,9.80
2022-10-24T19:45:14.606Z,15.77
2022-10-24T19:47:41.149Z,9.23
2022-10-24T19:50:08.141Z,10.07
2022-10-24T19:52:34.943Z,9.65
2022-10-24T19:55:01.431Z,6.15
2022-10-24T19:57:28.136Z,7.15
2022-10-24T19:59:54.811Z,10.40
2022-10-24T20:02:22.212Z,13.95
2022-10-24T20:04:49.295Z,10.95
2022-10-24T20:07:17.485Z,9.43
2022-10-24T20:09:44.401Z,9.93
2022-10-24T20:12:10.937Z,6.95
2022-10-24T20:14:37.607Z,5.60
2022-10-24T20:17:04.146Z,8.40
2022-10-24T20:19:30.613Z,4.75
2022-10-24T20:22:00.240Z,8.10
2022-10-24T20:24:30.581Z,7.38
2022-10-24T20:26:57.443Z,11.27
2022-10-24T20:29:24.038Z,7.13
2022-10-24T20:31:50.844Z,10.27
2022-10-24T20:34:17.419Z,7.72
2022-10-24T20:36:47.979Z,6.28
2022-10-24T20:39:16.217Z,3.67
2022-10-24T20:41:43.334Z,10.55
2022-10-24T20:44:11.235Z,13.75
2022-10-24T20:46:37.991Z,9.63
2022-10-24T20:49:04.999Z,19.25
2022-10-24T20:51:31.674Z,9.05
2022-10-24T20:53:58.842Z,18.05
2022-10-24T20:56:26.749Z,9.00
2022-10-24T20:58:55.709Z,12.10
2022-10-24T21:01:24.928Z,7.18
2022-10-24T21:03:52.268Z,12.35
2022-10-24T21:06:21.779Z,9.68
2022-10-24T21:08:49.755Z,8.88
2022-10-24T21:11:18.633Z,7.78
2022-10-24T21:13:45.703Z,7.93
2022-10-24T21:16:12.555Z,11.95
2022-10-24T21:18:39.114Z,7.38
2022-10-24T21:21:10.278Z,9.18
2022-10-24T21:23:37.025Z,11.13
2022-10-24T21:26:06.068Z,9.45
2022-10-24T21:28:33.082Z,9.45
2022-10-24T21:31:07.769Z,8.93
2022-10-24T21:33:35.076Z,7.47
2022-10-24T21:36:06.391Z,12.23
2022-10-24T21:38:32.994Z,7.50
2022-10-24T21:41:07.647Z,11.85
2022-10-24T21:43:36.784Z,8.27
2022-10-24T21:46:15.314Z,5.97
2022-10-24T21:48:43.551Z,10.75
2022-10-24T21:51:17.759Z,11.38
2022-10-24T21:56:17.545Z,12.35
2022-10-24T21:59:14.847Z,8.82
2022-10-24T22:01:42.992Z,7.93
2022-10-24T22:04:11.478Z,4.40
2022-10-24T22:06:38.225Z,4.18
2022-10-24T22:09:07.038Z,6.90
2022-10-24T22:11:35.473Z,9.43
2022-10-24T22:14:04.182Z,10.70
2022-10-24T22:16:32.135Z,12.82
2022-10-24T22:19:04.394Z,8.15
2022-10-24T22:21:40.061Z,4.88
2022-10-24T22:24:12.523Z,7.15
2022-10-24T22:26:39.449Z,13.00
2022-10-24T22:29:07.994Z,9.73
2022-10-24T22:31:35.170Z,12.18
2022-10-24T22:34:02.960Z,10.75
2022-10-24T22:36:44.375Z,15.02
2022-10-24T22:39:22.247Z,10.45
2022-10-24T22:41:49.479Z,7.90
2022-10-24T22:44:18.049Z,6.78
2022-10-24T22:47:03.915Z,8.75
2022-10-24T22:49:51.461Z,7.05
2022-10-24T22:52:18.304Z,9.40
2022-10-24T22:54:45.170Z,16.38
2022-10-24T22:57:11.957Z,7.72
2022-10-24T22:59:38.827Z,11.98
2022-10-24T23:02:18.940Z,7.53
2022-10-24T23:05:04.278Z,4.43
2022-10-24T23:07:43.711Z,8.70
2022-10-24T23:10:13.939Z,10.43
2022-10-24T23:12:40.820Z,5.35
2022-10-24T23:15:13.570Z,7.35
2022-10-24T23:17:40.708Z,8.65
2022-10-24T23:20:31.835Z,11.77
2022-10-24T23:23:09.546Z,8.77
2022-10-24T23:26:04.035Z,5.85
2022-10-24T23:28:41.499Z,7.35
2022-10-24T23:31:08.525Z,7.63
2022-10-24T23:33:36.156Z,6.28
2022-10-24T23:36:03.002Z,6.80
2022-10-24T23:38:29.798Z,5.75
2022-10-24T23:40:56.770Z,8.30
2022-10-24T23:43:23.627Z,6.30
2022-10-24T23:46:01.659Z,5.32
2022-10-24T23:48:51.279Z,2.92
2022-10-24T23:51:19.173Z,10.82
2022-10-24T23:53:53.011Z,6.38
2022-10-24T23:56:25.395Z,8.75
2022-10-24T23:58:52.817Z,5.68
